sensor_id;sensor_type;location;lat;lon;timestamp;P1;durP1;ratioP1;P2;durP2;ratioP2
45650;SDS011;31365;48.858;8.530;2023-06-14T00:01:07;3.50;;;2.80;;
45650;SDS011;31365;48.858;8.530;2023-06-14T00:03:36;3.17;;;2.73;;
45650;SDS011;31365;48.858;8.530;2023-06-14T00:06:06;4.80;;;3.00;;
45650;SDS011;31365;48.858;8.530;2023-06-14T00:08:34;4.70;;;3.03;;
45650;SDS011;31365;48.858;8.530;2023-06-14T00:11:03;3.88;;;3.20;;
45650;SDS011;31365;48.858;8.530;2023-06-14T00:13:32;3.07;;;2.77;;
45650;SDS011;31365;48.858;8.530;2023-06-14T00:16:05;3.13;;;2.83;;
45650;SDS011;31365;48.858;8.530;2023-06-14T00:18:35;3.53;;;3.23;;
45650;SDS011;31365;48.858;8.530;2023-06-14T00:21:05;3.97;;;2.60;;
45650;SDS011;31365;48.858;8.530;2023-06-14T00:23:33;3.97;;;2.90;;
45650;SDS011;31365;48.858;8.530;2023-06-14T00:26:02;3.63;;;3.05;;
45650;SDS011;31365;48.858;8.530;2023-06-14T00:28:31;5.93;;;3.60;;
45650;SDS011;31365;48.858;8.530;2023-06-14T00:31:00;4.77;;;3.50;;
45650;SDS011;31365;48.858;8.530;2023-06-14T00:33:30;5.60;;;2.90;;
45650;SDS011;31365;48.858;8.530;2023-06-14T00:35:58;4.50;;;2.83;;
45650;SDS011;31365;48.858;8.530;2023-06-14T00:38:27;5.37;;;2.90;;
45650;SDS011;31365;48.858;8.530;2023-06-14T00:40:58;3.27;;;2.83;;
45650;SDS011;31365;48.858;8.530;2023-06-14T00:43:27;4.30;;;3.13;;
45650;SDS011;31365;48.858;8.530;2023-06-14T00:45:56;3.77;;;3.10;;
45650;SDS011;31365;48.858;8.530;2023-06-14T00:48:25;5.63;;;3.30;;
45650;SDS011;31365;48.858;8.530;2023-06-14T00:50:56;4.83;;;3.17;;
45650;SDS011;31365;48.858;8.530;2023-06-14T00:53:33;4.13;;;2.93;;
45650;SDS011;31365;48.858;8.530;2023-06-14T00:56:03;3.83;;;2.80;;
45650;SDS011;31365;48.858;8.530;2023-06-14T00:58:32;6.73;;;3.90;;
45650;SDS011;31365;48.858;8.530;2023-06-14T01:01:01;3.30;;;3.00;;
45650;SDS011;31365;48.858;8.530;2023-06-14T01:03:32;5.50;;;3.20;;
45650;SDS011;31365;48.858;8.530;2023-06-14T01:06:05;5.63;;;3.60;;
45650;SDS011;31365;48.858;8.530;2023-06-14T01:08:57;4.97;;;3.00;;
45650;SDS011;31365;48.858;8.530;2023-06-14T01:11:38;4.37;;;3.23;;
45650;SDS011;31365;48.858;8.530;2023-06-14T01:14:18;4.67;;;3.10;;
45650;SDS011;31365;48.858;8.530;2023-06-14T01:16:49;4.53;;;2.80;;
45650;SDS011;31365;48.858;8.530;2023-06-14T01:19:20;3.40;;;3.03;;
45650;SDS011;31365;48.858;8.530;2023-06-14T01:21:53;5.93;;;3.40;;
45650;SDS011;31365;48.858;8.530;2023-06-14T01:24:25;5.27;;;3.40;;
45650;SDS011;31365;48.858;8.530;2023-06-14T01:26:58;3.47;;;3.17;;
45650;SDS011;31365;48.858;8.530;2023-06-14T01:29:30;4.17;;;2.77;;
45650;SDS011;31365;48.858;8.530;2023-06-14T01:32:01;4.53;;;3.00;;
45650;SDS011;31365;48.858;8.530;2023-06-14T01:34:32;3.00;;;2.70;;
45650;SDS011;31365;48.858;8.530;2023-06-14T01:37:01;4.10;;;3.23;;
45650;SDS011;31365;48.858;8.530;2023-06-14T01:39:33;4.20;;;3.00;;
45650;SDS011;31365;48.858;8.530;2023-06-14T01:42:03;5.90;;;3.00;;
45650;SDS011;31365;48.858;8.530;2023-06-14T01:44:34;3.40;;;3.10;;
45650;SDS011;31365;48.858;8.530;2023-06-14T01:47:03;3.17;;;2.87;;
45650;SDS011;31365;48.858;8.530;2023-06-14T01:49:33;3.73;;;2.90;;
45650;SDS011;31365;48.858;8.530;2023-06-14T01:52:03;3.20;;;2.80;;
45650;SDS011;31365;48.858;8.530;2023-06-14T01:54:34;4.07;;;3.03;;
45650;SDS011;31365;48.858;8.530;2023-06-14T01:57:05;2.93;;;2.37;;
45650;SDS011;31365;48.858;8.530;2023-06-14T01:59:34;2.90;;;2.70;;
45650;SDS011;31365;48.858;8.530;2023-06-14T02:02:03;3.17;;;2.67;;
45650;SDS011;31365;48.858;8.530;2023-06-14T02:04:32;7.20;;;3.30;;
45650;SDS011;31365;48.858;8.530;2023-06-14T02:07:01;4.00;;;2.70;;
45650;SDS011;31365;48.858;8.530;2023-06-14T02:09:30;3.93;;;2.90;;
45650;SDS011;31365;48.858;8.530;2023-06-14T02:12:00;2.93;;;2.70;;
45650;SDS011;31365;48.858;8.530;2023-06-14T02:14:30;3.23;;;2.93;;
45650;SDS011;31365;48.858;8.530;2023-06-14T02:16:59;4.90;;;2.80;;
45650;SDS011;31365;48.858;8.530;2023-06-14T02:19:29;3.70;;;2.67;;
45650;SDS011;31365;48.858;8.530;2023-06-14T02:21:58;4.80;;;3.23;;
45650;SDS011;31365;48.858;8.530;2023-06-14T02:24:26;3.47;;;3.17;;
45650;SDS011;31365;48.858;8.530;2023-06-14T02:26:55;5.90;;;3.50;;
45650;SDS011;31365;48.858;8.530;2023-06-14T02:29:25;11.83;;;3.63;;
45650;SDS011;31365;48.858;8.530;2023-06-14T02:31:54;3.47;;;3.17;;
45650;SDS011;31365;48.858;8.530;2023-06-14T02:34:22;4.33;;;3.30;;
45650;SDS011;31365;48.858;8.530;2023-06-14T02:36:51;3.60;;;3.17;;
45650;SDS011;31365;48.858;8.530;2023-06-14T02:39:20;3.73;;;2.90;;
45650;SDS011;31365;48.858;8.530;2023-06-14T02:41:52;2.97;;;2.67;;
45650;SDS011;31365;48.858;8.530;2023-06-14T02:44:39;5.83;;;3.07;;
45650;SDS011;31365;48.858;8.530;2023-06-14T02:47:10;3.43;;;2.87;;
45650;SDS011;31365;48.858;8.530;2023-06-14T02:49:39;3.07;;;2.30;;
45650;SDS011;31365;48.858;8.530;2023-06-14T02:52:15;3.33;;;3.03;;
45650;SDS011;31365;48.858;8.530;2023-06-14T02:54:44;3.70;;;2.43;;
45650;SDS011;31365;48.858;8.530;2023-06-14T02:57:14;2.60;;;2.40;;
45650;SDS011;31365;48.858;8.530;2023-06-14T02:59:45;4.07;;;3.27;;
45650;SDS011;31365;48.858;8.530;2023-06-14T03:02:14;4.40;;;2.87;;
45650;SDS011;31365;48.858;8.530;2023-06-14T03:04:45;3.83;;;3.23;;
45650;SDS011;31365;48.858;8.530;2023-06-14T03:07:16;3.40;;;2.87;;
45650;SDS011;31365;48.858;8.530;2023-06-14T03:09:49;4.53;;;2.70;;
45650;SDS011;31365;48.858;8.530;2023-06-14T03:12:19;3.13;;;2.70;;
45650;SDS011;31365;48.858;8.530;2023-06-14T03:14:52;3.30;;;2.97;;
45650;SDS011;31365;48.858;8.530;2023-06-14T03:17:25;4.03;;;3.13;;
45650;SDS011;31365;48.858;8.530;2023-06-14T03:20:00;4.20;;;2.87;;
45650;SDS011;31365;48.858;8.530;2023-06-14T03:22:29;3.90;;;3.10;;
45650;SDS011;31365;48.858;8.530;2023-06-14T03:25:00;5.30;;;4.23;;
45650;SDS011;31365;48.858;8.530;2023-06-14T03:27:34;3.77;;;3.47;;
45650;SDS011;31365;48.858;8.530;2023-06-14T03:30:07;6.23;;;3.40;;
45650;SDS011;31365;48.858;8.530;2023-06-14T03:32:37;5.10;;;3.77;;
45650;SDS011;31365;48.858;8.530;2023-06-14T03:35:07;3.37;;;3.00;;
45650;SDS011;31365;48.858;8.530;2023-06-14T03:37:36;3.43;;;3.13;;
45650;SDS011;31365;48.858;8.530;2023-06-14T03:40:07;3.23;;;3.03;;
45650;SDS011;31365;48.858;8.530;2023-06-14T03:42:40;3.67;;;3.33;;
45650;SDS011;31365;48.858;8.530;2023-06-14T03:45:12;5.60;;;3.23;;
45650;SDS011;31365;48.858;8.530;2023-06-14T03:47:41;4.30;;;3.20;;
45650;SDS011;31365;48.858;8.530;2023-06-14T03:50:10;3.80;;;3.20;;
45650;SDS011;31365;48.858;8.530;2023-06-14T03:52:40;4.63;;;3.13;;
45650;SDS011;31365;48.858;8.530;2023-06-14T03:55:11;7.40;;;3.83;;
45650;SDS011;31365;48.858;8.530;2023-06-14T03:57:45;3.93;;;3.13;;
45650;SDS011;31365;48.858;8.530;2023-06-14T04:00:18;4.60;;;3.10;;
45650;SDS011;31365;48.858;8.530;2023-06-14T04:02:47;4.27;;;3.30;;
45650;SDS011;31365;48.858;8.530;2023-06-14T04:05:17;3.57;;;3.27;;
45650;SDS011;31365;48.858;8.530;2023-06-14T04:07:48;3.50;;;3.10;;
45650;SDS011;31365;48.858;8.530;2023-06-14T04:10:17;4.20;;;2.80;;
45650;SDS011;31365;48.858;8.530;2023-06-14T04:12:47;5.60;;;2.97;;
45650;SDS011;31365;48.858;8.530;2023-06-14T04:15:19;3.83;;;3.53;;
45650;SDS011;31365;48.858;8.530;2023-06-14T04:17:51;7.17;;;2.90;;
45650;SDS011;31365;48.858;8.530;2023-06-14T04:20:24;23.73;;;4.97;;
45650;SDS011;31365;48.858;8.530;2023-06-14T04:22:53;3.10;;;2.87;;
45650;SDS011;31365;48.858;8.530;2023-06-14T04:25:27;4.73;;;3.03;;
45650;SDS011;31365;48.858;8.530;2023-06-14T04:27:59;5.63;;;2.97;;
45650;SDS011;31365;48.858;8.530;2023-06-14T04:30:29;6.53;;;3.67;;
45650;SDS011;31365;48.858;8.530;2023-06-14T04:32:59;3.87;;;3.27;;
45650;SDS011;31365;48.858;8.530;2023-06-14T04:35:32;3.97;;;3.53;;
45650;SDS011;31365;48.858;8.530;2023-06-14T04:38:04;3.10;;;2.90;;
45650;SDS011;31365;48.858;8.530;2023-06-14T04:40:36;7.20;;;3.93;;
45650;SDS011;31365;48.858;8.530;2023-06-14T04:43:16;3.63;;;3.23;;
45650;SDS011;31365;48.858;8.530;2023-06-14T04:45:53;7.37;;;3.47;;
45650;SDS011;31365;48.858;8.530;2023-06-14T04:48:24;3.53;;;3.03;;
45650;SDS011;31365;48.858;8.530;2023-06-14T04:50:53;3.77;;;3.20;;
45650;SDS011;31365;48.858;8.530;2023-06-14T04:53:23;3.73;;;3.27;;
45650;SDS011;31365;48.858;8.530;2023-06-14T04:55:56;3.87;;;3.43;;
45650;SDS011;31365;48.858;8.530;2023-06-14T04:58:25;7.63;;;3.43;;
45650;SDS011;31365;48.858;8.530;2023-06-14T05:00:56;3.50;;;3.20;;
45650;SDS011;31365;48.858;8.530;2023-06-14T05:03:25;4.27;;;3.20;;
45650;SDS011;31365;48.858;8.530;2023-06-14T05:05:57;3.47;;;3.07;;
45650;SDS011;31365;48.858;8.530;2023-06-14T05:08:27;3.90;;;3.50;;
45650;SDS011;31365;48.858;8.530;2023-06-14T05:10:57;3.90;;;3.40;;
45650;SDS011;31365;48.858;8.530;2023-06-14T05:13:26;4.23;;;3.40;;
45650;SDS011;31365;48.858;8.530;2023-06-14T05:15:56;4.43;;;3.00;;
45650;SDS011;31365;48.858;8.530;2023-06-14T05:18:26;3.37;;;3.07;;
45650;SDS011;31365;48.858;8.530;2023-06-14T05:20:55;3.40;;;3.10;;
45650;SDS011;31365;48.858;8.530;2023-06-14T05:23:23;5.03;;;3.17;;
45650;SDS011;31365;48.858;8.530;2023-06-14T05:25:52;3.70;;;3.23;;
45650;SDS011;31365;48.858;8.530;2023-06-14T05:28:21;3.60;;;3.30;;
45650;SDS011;31365;48.858;8.530;2023-06-14T05:30:50;4.03;;;3.33;;
45650;SDS011;31365;48.858;8.530;2023-06-14T05:33:21;4.33;;;3.30;;
45650;SDS011;31365;48.858;8.530;2023-06-14T05:35:50;4.20;;;3.53;;
45650;SDS011;31365;48.858;8.530;2023-06-14T05:38:19;3.20;;;2.90;;
45650;SDS011;31365;48.858;8.530;2023-06-14T05:40:48;4.83;;;3.90;;
45650;SDS011;31365;48.858;8.530;2023-06-14T05:43:16;3.77;;;3.37;;
45650;SDS011;31365;48.858;8.530;2023-06-14T05:45:45;5.13;;;3.20;;
45650;SDS011;31365;48.858;8.530;2023-06-14T05:48:14;7.97;;;3.20;;
45650;SDS011;31365;48.858;8.530;2023-06-14T05:50:44;4.05;;;3.60;;
45650;SDS011;31365;48.858;8.530;2023-06-14T05:53:14;6.63;;;3.23;;
45650;SDS011;31365;48.858;8.530;2023-06-14T05:55:43;4.82;;;3.17;;
45650;SDS011;31365;48.858;8.530;2023-06-14T05:58:12;4.15;;;3.30;;
45650;SDS011;31365;48.858;8.530;2023-06-14T06:00:40;4.00;;;3.22;;
45650;SDS011;31365;48.858;8.530;2023-06-14T06:03:09;4.22;;;3.28;;
45650;SDS011;31365;48.858;8.530;2023-06-14T06:05:39;5.28;;;3.35;;
45650;SDS011;31365;48.858;8.530;2023-06-14T06:08:12;6.13;;;3.40;;
45650;SDS011;31365;48.858;8.530;2023-06-14T06:10:43;5.75;;;3.70;;
45650;SDS011;31365;48.858;8.530;2023-06-14T06:13:12;5.30;;;3.55;;
45650;SDS011;31365;48.858;8.530;2023-06-14T06:15:41;3.90;;;3.13;;
45650;SDS011;31365;48.858;8.530;2023-06-14T06:18:11;3.83;;;3.28;;
45650;SDS011;31365;48.858;8.530;2023-06-14T06:20:40;4.10;;;3.38;;
45650;SDS011;31365;48.858;8.530;2023-06-14T06:23:10;5.35;;;3.20;;
45650;SDS011;31365;48.858;8.530;2023-06-14T06:25:40;6.45;;;3.35;;
45650;SDS011;31365;48.858;8.530;2023-06-14T06:28:10;3.67;;;3.38;;
45650;SDS011;31365;48.858;8.530;2023-06-14T06:30:38;3.35;;;3.05;;
45650;SDS011;31365;48.858;8.530;2023-06-14T06:33:07;5.53;;;3.40;;
45650;SDS011;31365;48.858;8.530;2023-06-14T06:35:36;29.80;;;5.97;;
45650;SDS011;31365;48.858;8.530;2023-06-14T06:38:05;3.45;;;3.15;;
45650;SDS011;31365;48.858;8.530;2023-06-14T06:40:34;4.38;;;3.33;;
45650;SDS011;31365;48.858;8.530;2023-06-14T06:43:04;4.75;;;3.20;;
45650;SDS011;31365;48.858;8.530;2023-06-14T06:45:40;5.82;;;3.45;;
45650;SDS011;31365;48.858;8.530;2023-06-14T06:48:09;4.53;;;3.30;;
45650;SDS011;31365;48.858;8.530;2023-06-14T06:50:38;5.95;;;3.20;;
45650;SDS011;31365;48.858;8.530;2023-06-14T06:53:07;4.28;;;3.38;;
45650;SDS011;31365;48.858;8.530;2023-06-14T06:55:36;6.95;;;3.45;;
45650;SDS011;31365;48.858;8.530;2023-06-14T06:58:06;6.63;;;3.45;;
45650;SDS011;31365;48.858;8.530;2023-06-14T07:00:35;3.85;;;3.45;;
45650;SDS011;31365;48.858;8.530;2023-06-14T07:03:04;4.28;;;3.88;;
45650;SDS011;31365;48.858;8.530;2023-06-14T07:05:33;4.60;;;3.15;;
45650;SDS011;31365;48.858;8.530;2023-06-14T07:08:02;4.35;;;3.80;;
45650;SDS011;31365;48.858;8.530;2023-06-14T07:10:31;4.10;;;3.60;;
45650;SDS011;31365;48.858;8.530;2023-06-14T07:12:59;7.03;;;3.85;;
45650;SDS011;31365;48.858;8.530;2023-06-14T07:15:29;6.35;;;3.40;;
45650;SDS011;31365;48.858;8.530;2023-06-14T07:17:58;5.80;;;3.75;;
45650;SDS011;31365;48.858;8.530;2023-06-14T07:20:27;4.22;;;3.83;;
45650;SDS011;31365;48.858;8.530;2023-06-14T07:22:57;5.45;;;3.90;;
45650;SDS011;31365;48.858;8.530;2023-06-14T07:25:26;5.03;;;4.05;;
45650;SDS011;31365;48.858;8.530;2023-06-14T07:27:55;6.55;;;3.88;;
45650;SDS011;31365;48.858;8.530;2023-06-14T07:30:23;6.80;;;4.05;;
45650;SDS011;31365;48.858;8.530;2023-06-14T07:32:55;9.05;;;4.00;;
45650;SDS011;31365;48.858;8.530;2023-06-14T07:35:24;3.83;;;3.42;;
45650;SDS011;31365;48.858;8.530;2023-06-14T07:37:53;5.55;;;3.78;;
45650;SDS011;31365;48.858;8.530;2023-06-14T07:40:22;4.95;;;4.18;;
45650;SDS011;31365;48.858;8.530;2023-06-14T07:42:52;5.03;;;3.38;;
45650;SDS011;31365;48.858;8.530;2023-06-14T07:45:21;4.13;;;3.72;;
45650;SDS011;31365;48.858;8.530;2023-06-14T07:47:50;5.40;;;3.97;;
45650;SDS011;31365;48.858;8.530;2023-06-14T07:50:21;6.15;;;4.20;;
45650;SDS011;31365;48.858;8.530;2023-06-14T07:52:51;4.38;;;3.70;;
45650;SDS011;31365;48.858;8.530;2023-06-14T07:55:19;9.27;;;3.78;;
45650;SDS011;31365;48.858;8.530;2023-06-14T07:57:48;5.15;;;4.13;;
45650;SDS011;31365;48.858;8.530;2023-06-14T08:00:17;6.60;;;4.07;;
45650;SDS011;31365;48.858;8.530;2023-06-14T08:02:47;5.40;;;4.38;;
45650;SDS011;31365;48.858;8.530;2023-06-14T08:05:25;4.47;;;3.95;;
45650;SDS011;31365;48.858;8.530;2023-06-14T08:07:55;7.15;;;4.80;;
45650;SDS011;31365;48.858;8.530;2023-06-14T08:10:24;7.90;;;4.38;;
45650;SDS011;31365;48.858;8.530;2023-06-14T08:12:52;4.85;;;3.63;;
45650;SDS011;31365;48.858;8.530;2023-06-14T08:15:21;5.82;;;3.83;;
45650;SDS011;31365;48.858;8.530;2023-06-14T08:17:49;4.13;;;3.72;;
45650;SDS011;31365;48.858;8.530;2023-06-14T08:20:18;5.88;;;3.83;;
45650;SDS011;31365;48.858;8.530;2023-06-14T08:22:48;4.55;;;3.47;;
45650;SDS011;31365;48.858;8.530;2023-06-14T08:25:22;8.40;;;3.58;;
45650;SDS011;31365;48.858;8.530;2023-06-14T08:27:51;5.00;;;3.08;;
45650;SDS011;31365;48.858;8.530;2023-06-14T08:30:19;4.28;;;3.88;;
45650;SDS011;31365;48.858;8.530;2023-06-14T08:32:48;7.10;;;3.65;;
45650;SDS011;31365;48.858;8.530;2023-06-14T08:35:36;3.95;;;3.45;;
45650;SDS011;31365;48.858;8.530;2023-06-14T08:38:08;4.30;;;3.60;;
45650;SDS011;31365;48.858;8.530;2023-06-14T08:40:38;6.95;;;3.50;;
45650;SDS011;31365;48.858;8.530;2023-06-14T08:43:09;8.85;;;4.45;;
45650;SDS011;31365;48.858;8.530;2023-06-14T08:45:38;5.20;;;3.65;;
45650;SDS011;31365;48.858;8.530;2023-06-14T08:48:07;5.03;;;4.00;;
45650;SDS011;31365;48.858;8.530;2023-06-14T08:50:38;5.53;;;3.67;;
45650;SDS011;31365;48.858;8.530;2023-06-14T08:53:11;6.53;;;3.72;;
45650;SDS011;31365;48.858;8.530;2023-06-14T08:55:47;7.00;;;3.72;;
45650;SDS011;31365;48.858;8.530;2023-06-14T08:58:17;4.97;;;3.65;;
45650;SDS011;31365;48.858;8.530;2023-06-14T09:00:46;3.78;;;3.47;;
45650;SDS011;31365;48.858;8.530;2023-06-14T09:03:16;8.05;;;4.38;;
45650;SDS011;31365;48.858;8.530;2023-06-14T09:05:47;5.28;;;3.28;;
45650;SDS011;31365;48.858;8.530;2023-06-14T09:08:19;3.83;;;3.05;;
45650;SDS011;31365;48.858;8.530;2023-06-14T09:10:48;9.05;;;3.80;;
45650;SDS011;31365;48.858;8.530;2023-06-14T09:13:18;5.15;;;3.97;;
45650;SDS011;31365;48.858;8.530;2023-06-14T09:15:46;4.80;;;3.53;;
45650;SDS011;31365;48.858;8.530;2023-06-14T09:18:16;4.32;;;3.58;;
45650;SDS011;31365;48.858;8.530;2023-06-14T09:20:46;6.97;;;4.05;;
45650;SDS011;31365;48.858;8.530;2023-06-14T09:23:21;6.13;;;4.43;;
45650;SDS011;31365;48.858;8.530;2023-06-14T09:25:50;4.50;;;3.17;;
45650;SDS011;31365;48.858;8.530;2023-06-14T09:28:19;4.53;;;3.75;;
45650;SDS011;31365;48.858;8.530;2023-06-14T09:30:49;4.95;;;3.58;;
45650;SDS011;31365;48.858;8.530;2023-06-14T09:33:18;3.78;;;3.40;;
45650;SDS011;31365;48.858;8.530;2023-06-14T09:35:50;4.35;;;3.95;;
45650;SDS011;31365;48.858;8.530;2023-06-14T09:38:21;3.95;;;3.15;;
45650;SDS011;31365;48.858;8.530;2023-06-14T09:40:49;5.68;;;3.45;;
45650;SDS011;31365;48.858;8.530;2023-06-14T09:43:19;6.20;;;3.60;;
45650;SDS011;31365;48.858;8.530;2023-06-14T09:45:48;9.68;;;3.70;;
45650;SDS011;31365;48.858;8.530;2023-06-14T09:48:19;3.95;;;3.25;;
45650;SDS011;31365;48.858;8.530;2023-06-14T09:50:50;8.70;;;3.72;;
45650;SDS011;31365;48.858;8.530;2023-06-14T09:53:21;7.15;;;3.55;;
45650;SDS011;31365;48.858;8.530;2023-06-14T09:55:52;7.00;;;3.85;;
45650;SDS011;31365;48.858;8.530;2023-06-14T09:58:26;6.40;;;3.60;;
45650;SDS011;31365;48.858;8.530;2023-06-14T10:00:58;3.92;;;3.28;;
45650;SDS011;31365;48.858;8.530;2023-06-14T10:03:28;7.53;;;3.53;;
45650;SDS011;31365;48.858;8.530;2023-06-14T10:06:18;8.18;;;3.53;;
45650;SDS011;31365;48.858;8.530;2023-06-14T10:08:52;6.13;;;3.55;;
45650;SDS011;31365;48.858;8.530;2023-06-14T10:11:26;7.05;;;3.55;;
45650;SDS011;31365;48.858;8.530;2023-06-14T10:13:56;5.60;;;3.25;;
45650;SDS011;31365;48.858;8.530;2023-06-14T10:16:28;5.97;;;3.65;;
45650;SDS011;31365;48.858;8.530;2023-06-14T10:19:04;3.90;;;3.50;;
45650;SDS011;31365;48.858;8.530;2023-06-14T10:21:46;4.93;;;4.03;;
45650;SDS011;31365;48.858;8.530;2023-06-14T10:24:27;4.35;;;3.33;;
45650;SDS011;31365;48.858;8.530;2023-06-14T10:27:06;4.15;;;3.40;;
45650;SDS011;31365;48.858;8.530;2023-06-14T10:29:48;5.75;;;3.53;;
45650;SDS011;31365;48.858;8.530;2023-06-14T10:32:31;3.75;;;3.38;;
45650;SDS011;31365;48.858;8.530;2023-06-14T10:35:01;4.97;;;3.35;;
45650;SDS011;31365;48.858;8.530;2023-06-14T10:37:33;6.07;;;3.60;;
45650;SDS011;31365;48.858;8.530;2023-06-14T10:40:06;3.92;;;3.50;;
45650;SDS011;31365;48.858;8.530;2023-06-14T10:42:36;3.70;;;2.97;;
45650;SDS011;31365;48.858;8.530;2023-06-14T10:45:06;5.88;;;3.40;;
45650;SDS011;31365;48.858;8.530;2023-06-14T10:47:41;4.25;;;3.20;;
45650;SDS011;31365;48.858;8.530;2023-06-14T10:50:10;5.90;;;3.90;;
45650;SDS011;31365;48.858;8.530;2023-06-14T10:52:43;4.10;;;3.30;;
45650;SDS011;31365;48.858;8.530;2023-06-14T10:55:14;7.68;;;3.55;;
45650;SDS011;31365;48.858;8.530;2023-06-14T10:57:45;5.45;;;3.47;;
45650;SDS011;31365;48.858;8.530;2023-06-14T11:00:19;5.85;;;3.28;;
45650;SDS011;31365;48.858;8.530;2023-06-14T11:06:14;6.03;;;3.00;;
45650;SDS011;31365;48.858;8.530;2023-06-14T11:08:56;10.68;;;3.35;;
45650;SDS011;31365;48.858;8.530;2023-06-14T11:12:07;6.90;;;3.38;;
45650;SDS011;31365;48.858;8.530;2023-06-14T11:14:39;6.53;;;3.70;;
45650;SDS011;31365;48.858;8.530;2023-06-14T11:17:08;3.20;;;2.90;;
45650;SDS011;31365;48.858;8.530;2023-06-14T11:19:41;6.25;;;3.03;;
45650;SDS011;31365;48.858;8.530;2023-06-14T11:22:11;3.35;;;3.05;;
45650;SDS011;31365;48.858;8.530;2023-06-14T11:24:42;6.70;;;3.28;;
45650;SDS011;31365;48.858;8.530;2023-06-14T11:27:14;5.88;;;2.63;;
45650;SDS011;31365;48.858;8.530;2023-06-14T11:29:47;2.88;;;2.60;;
45650;SDS011;31365;48.858;8.530;2023-06-14T11:32:17;3.60;;;2.67;;
45650;SDS011;31365;48.858;8.530;2023-06-14T11:34:46;4.10;;;3.17;;
45650;SDS011;31365;48.858;8.530;2023-06-14T11:37:18;3.95;;;3.00;;
45650;SDS011;31365;48.858;8.530;2023-06-14T11:39:48;5.68;;;3.03;;
45650;SDS011;31365;48.858;8.530;2023-06-14T11:42:18;4.47;;;3.45;;
45650;SDS011;31365;48.858;8.530;2023-06-14T11:44:47;6.15;;;3.45;;
45650;SDS011;31365;48.858;8.530;2023-06-14T11:47:23;4.13;;;2.80;;
45650;SDS011;31365;48.858;8.530;2023-06-14T11:49:51;3.15;;;2.78;;
45650;SDS011;31365;48.858;8.530;2023-06-14T11:52:21;4.88;;;2.75;;
45650;SDS011;31365;48.858;8.530;2023-06-14T11:54:50;3.22;;;2.63;;
45650;SDS011;31365;48.858;8.530;2023-06-14T11:57:21;7.47;;;3.13;;
45650;SDS011;31365;48.858;8.530;2023-06-14T11:59:51;4.90;;;2.90;;
45650;SDS011;31365;48.858;8.530;2023-06-14T12:02:23;4.55;;;2.85;;
45650;SDS011;31365;48.858;8.530;2023-06-14T12:04:56;5.50;;;2.50;;
45650;SDS011;31365;48.858;8.530;2023-06-14T12:07:34;3.90;;;2.53;;
45650;SDS011;31365;48.858;8.530;2023-06-14T12:10:04;5.13;;;2.67;;
45650;SDS011;31365;48.858;8.530;2023-06-14T12:12:39;3.13;;;2.90;;
45650;SDS011;31365;48.858;8.530;2023-06-14T12:15:09;4.03;;;2.72;;
45650;SDS011;31365;48.858;8.530;2023-06-14T12:17:39;5.25;;;2.80;;
45650;SDS011;31365;48.858;8.530;2023-06-14T12:20:11;3.45;;;3.15;;
45650;SDS011;31365;48.858;8.530;2023-06-14T12:22:52;6.10;;;3.13;;
45650;SDS011;31365;48.858;8.530;2023-06-14T12:25:23;3.38;;;2.90;;
45650;SDS011;31365;48.858;8.530;2023-06-14T12:27:57;3.03;;;2.60;;
45650;SDS011;31365;48.858;8.530;2023-06-14T12:30:26;3.60;;;2.80;;
45650;SDS011;31365;48.858;8.530;2023-06-14T12:32:55;3.15;;;2.78;;
45650;SDS011;31365;48.858;8.530;2023-06-14T12:35:25;6.43;;;2.97;;
45650;SDS011;31365;48.858;8.530;2023-06-14T12:37:53;5.68;;;2.78;;
45650;SDS011;31365;48.858;8.530;2023-06-14T12:40:22;3.42;;;2.88;;
45650;SDS011;31365;48.858;8.530;2023-06-14T12:42:51;4.20;;;2.75;;
45650;SDS011;31365;48.858;8.530;2023-06-14T12:45:22;4.57;;;2.78;;
45650;SDS011;31365;48.858;8.530;2023-06-14T12:47:50;5.32;;;2.97;;
45650;SDS011;31365;48.858;8.530;2023-06-14T12:50:19;2.40;;;2.20;;
45650;SDS011;31365;48.858;8.530;2023-06-14T12:52:52;3.80;;;3.50;;
45650;SDS011;31365;48.858;8.530;2023-06-14T12:55:21;3.75;;;2.90;;
45650;SDS011;31365;48.858;8.530;2023-06-14T12:57:50;2.60;;;2.30;;
45650;SDS011;31365;48.858;8.530;2023-06-14T14:26:46;3.33;;;2.30;;
45650;SDS011;31365;48.858;8.530;2023-06-14T14:29:16;2.85;;;2.20;;
45650;SDS011;31365;48.858;8.530;2023-06-14T14:31:45;5.65;;;2.47;;
45650;SDS011;31365;48.858;8.530;2023-06-14T14:34:14;2.72;;;2.53;;
45650;SDS011;31365;48.858;8.530;2023-06-14T14:36:46;3.55;;;2.15;;
45650;SDS011;31365;48.858;8.530;2023-06-14T14:39:15;4.57;;;2.55;;
45650;SDS011;31365;48.858;8.530;2023-06-14T14:41:44;2.35;;;2.15;;
45650;SDS011;31365;48.858;8.530;2023-06-14T14:44:15;2.75;;;2.20;;
45650;SDS011;31365;48.858;8.530;2023-06-14T14:46:45;3.50;;;2.20;;
45650;SDS011;31365;48.858;8.530;2023-06-14T14:49:14;2.13;;;1.95;;
45650;SDS011;31365;48.858;8.530;2023-06-14T14:51:42;4.78;;;2.63;;
45650;SDS011;31365;48.858;8.530;2023-06-14T14:54:11;2.22;;;2.03;;
45650;SDS011;31365;48.858;8.530;2023-06-14T14:56:40;2.97;;;1.92;;
45650;SDS011;31365;48.858;8.530;2023-06-14T14:59:09;2.30;;;1.95;;
45650;SDS011;31365;48.858;8.530;2023-06-14T15:01:39;2.50;;;2.13;;
45650;SDS011;31365;48.858;8.530;2023-06-14T15:04:08;2.35;;;2.15;;
45650;SDS011;31365;48.858;8.530;2023-06-14T15:06:37;2.55;;;2.05;;
45650;SDS011;31365;48.858;8.530;2023-06-14T15:09:06;3.03;;;2.15;;
45650;SDS011;31365;48.858;8.530;2023-06-14T15:11:35;2.95;;;1.90;;
45650;SDS011;31365;48.858;8.530;2023-06-14T15:14:03;2.05;;;1.95;;
45650;SDS011;31365;48.858;8.530;2023-06-14T15:16:31;5.13;;;2.17;;
45650;SDS011;31365;48.858;8.530;2023-06-14T15:19:02;3.35;;;2.00;;
45650;SDS011;31365;48.858;8.530;2023-06-14T15:21:31;3.53;;;2.10;;
45650;SDS011;31365;48.858;8.530;2023-06-14T15:26:27;3.80;;;2.60;;
45650;SDS011;31365;48.858;8.530;2023-06-14T15:28:56;4.45;;;2.70;;
45650;SDS011;31365;48.858;8.530;2023-06-14T15:31:25;3.70;;;2.58;;
45650;SDS011;31365;48.858;8.530;2023-06-14T15:33:54;2.95;;;2.33;;
45650;SDS011;31365;48.858;8.530;2023-06-14T15:36:25;2.83;;;2.50;;
45650;SDS011;31365;48.858;8.530;2023-06-14T15:38:53;2.60;;;2.40;;
45650;SDS011;31365;48.858;8.530;2023-06-14T15:41:22;3.38;;;2.70;;
45650;SDS011;31365;48.858;8.530;2023-06-14T15:46:19;2.78;;;2.55;;
45650;SDS011;31365;48.858;8.530;2023-06-14T15:48:48;2.67;;;2.47;;
45650;SDS011;31365;48.858;8.530;2023-06-14T15:51:17;4.50;;;2.38;;
45650;SDS011;31365;48.858;8.530;2023-06-14T15:53:48;3.65;;;2.70;;
45650;SDS011;31365;48.858;8.530;2023-06-14T15:56:17;3.58;;;2.63;;
45650;SDS011;31365;48.858;8.530;2023-06-14T15:58:46;2.85;;;2.65;;
45650;SDS011;31365;48.858;8.530;2023-06-14T16:01:18;2.75;;;2.55;;
45650;SDS011;31365;48.858;8.530;2023-06-14T16:03:47;2.88;;;2.60;;
45650;SDS011;31365;48.858;8.530;2023-06-14T16:06:15;3.63;;;2.88;;
45650;SDS011;31365;48.858;8.530;2023-06-14T16:08:44;4.10;;;2.58;;
45650;SDS011;31365;48.858;8.530;2023-06-14T16:11:14;2.65;;;2.45;;
45650;SDS011;31365;48.858;8.530;2023-06-14T16:13:43;4.05;;;2.75;;
45650;SDS011;31365;48.858;8.530;2023-06-14T16:16:13;3.58;;;2.40;;
45650;SDS011;31365;48.858;8.530;2023-06-14T16:18:42;4.15;;;3.15;;
45650;SDS011;31365;48.858;8.530;2023-06-14T16:21:10;3.22;;;2.30;;
45650;SDS011;31365;48.858;8.530;2023-06-14T16:23:39;3.03;;;2.72;;
45650;SDS011;31365;48.858;8.530;2023-06-14T16:26:09;3.20;;;2.42;;
45650;SDS011;31365;48.858;8.530;2023-06-14T16:28:41;4.15;;;2.38;;
45650;SDS011;31365;48.858;8.530;2023-06-14T16:31:11;6.38;;;2.65;;
45650;SDS011;31365;48.858;8.530;2023-06-14T16:33:42;2.92;;;2.45;;
45650;SDS011;31365;48.858;8.530;2023-06-14T16:36:11;3.30;;;2.97;;
45650;SDS011;31365;48.858;8.530;2023-06-14T16:38:40;4.32;;;2.80;;
45650;SDS011;31365;48.858;8.530;2023-06-14T16:41:08;3.72;;;2.67;;
45650;SDS011;31365;48.858;8.530;2023-06-14T16:43:42;4.47;;;2.60;;